createdAt,value
2023-04-17T00:02:18.045Z,29.10
2023-04-17T00:04:46.523Z,28.93
2023-04-17T00:07:14.899Z,28.53
2023-04-17T00:09:43.725Z,29.73
2023-04-17T00:12:13.423Z,30.97
2023-04-17T00:14:41.769Z,28.13
2023-04-17T00:17:10.066Z,29.40
2023-04-17T00:19:38.360Z,30.77
2023-04-17T00:22:06.684Z,29.93
2023-04-17T00:24:34.959Z,29.27
2023-04-17T00:27:03.229Z,28.93
2023-04-17T00:29:34.174Z,27.93
2023-04-17T00:32:02.563Z,30.87
2023-04-17T00:34:31.026Z,29.17
2023-04-17T00:36:59.391Z,29.37
2023-04-17T00:39:27.974Z,30.93
2023-04-17T00:41:56.517Z,31.13
2023-04-17T00:44:24.769Z,31.33
2023-04-17T00:46:55.362Z,31.37
2023-04-17T00:49:24.820Z,32.33
2023-04-17T00:51:53.488Z,29.90
2023-04-17T00:54:23.753Z,30.77
2023-04-17T00:56:56.439Z,30.90
2023-04-17T00:59:26.316Z,30.10
2023-04-17T01:01:56.140Z,29.40
2023-04-17T01:04:24.883Z,30.13
2023-04-17T01:06:54.669Z,29.40
2023-04-17T01:09:23.083Z,31.10
2023-04-17T01:11:51.322Z,28.30
2023-04-17T01:14:19.625Z,29.77
2023-04-17T01:16:48.779Z,29.50
2023-04-17T01:19:19.518Z,29.40
2023-04-17T01:21:47.905Z,30.30
2023-04-17T01:24:17.545Z,27.90
2023-04-17T01:26:45.845Z,26.53
2023-04-17T01:29:14.181Z,28.97
2023-04-17T01:31:42.453Z,29.17
2023-04-17T01:34:10.781Z,27.80
2023-04-17T01:36:39.505Z,29.63
2023-04-17T01:39:07.935Z,27.57
2023-04-17T01:41:37.704Z,29.60
2023-04-17T01:44:06.463Z,26.80
2023-04-17T01:46:35.021Z,27.13
2023-04-17T01:49:03.483Z,28.60
2023-04-17T01:51:31.775Z,28.17
2023-04-17T01:54:00.271Z,28.17
2023-04-17T01:56:28.590Z,28.73
2023-04-17T01:58:58.177Z,28.63
2023-04-17T02:01:26.593Z,27.23
2023-04-17T02:03:55.042Z,28.60
2023-04-17T02:06:23.444Z,29.83
2023-04-17T02:08:51.741Z,29.77
2023-04-17T02:11:20.073Z,29.20
2023-04-17T02:13:52.407Z,29.03
2023-04-17T02:16:22.712Z,30.13
2023-04-17T02:18:53.021Z,27.83
2023-04-17T02:21:21.303Z,31.03
2023-04-17T02:23:49.800Z,30.40
2023-04-17T02:26:18.218Z,32.33
2023-04-17T02:28:46.727Z,29.40
2023-04-17T02:31:16.479Z,33.03
2023-04-17T02:33:48.438Z,31.53
2023-04-17T02:36:17.509Z,31.67
2023-04-17T02:38:47.159Z,31.00
2023-04-17T02:41:15.509Z,30.77
2023-04-17T02:43:44.348Z,32.63
2023-04-17T02:46:12.731Z,33.20
2023-04-17T02:48:41.050Z,33.33
2023-04-17T02:51:10.783Z,32.00
2023-04-17T02:53:39.399Z,31.93
2023-04-17T02:56:08.160Z,30.77
2023-04-17T02:58:37.120Z,32.30
2023-04-17T03:01:08.317Z,32.50
2023-04-17T03:03:42.573Z,35.83
2023-04-17T03:06:15.096Z,33.90
2023-04-17T03:08:43.510Z,32.70
2023-04-17T03:11:11.777Z,38.37
2023-04-17T03:13:40.519Z,33.03
2023-04-17T03:16:09.126Z,34.07
2023-04-17T03:18:41.851Z,38.00
2023-04-17T03:21:10.500Z,37.20
2023-04-17T03:23:40.126Z,36.17
2023-04-17T03:26:09.387Z,37.57
2023-04-17T03:28:38.341Z,39.73
2023-04-17T03:31:06.813Z,36.27
2023-04-17T03:33:37.883Z,37.50
2023-04-17T03:36:07.249Z,40.50
2023-04-17T03:38:38.947Z,39.33
2023-04-17T03:41:10.181Z,40.20
2023-04-17T03:43:38.595Z,39.70
2023-04-17T03:46:07.190Z,38.77
2023-04-17T03:48:35.775Z,41.67
2023-04-17T03:51:04.463Z,41.00
2023-04-17T03:53:34.234Z,37.30
2023-04-17T03:56:06.166Z,41.20
2023-04-17T03:58:38.814Z,39.80
2023-04-17T04:01:11.031Z,39.07
2023-04-17T04:03:46.536Z,36.90
2023-04-17T04:06:15.044Z,37.23
2023-04-17T04:08:43.461Z,38.73
2023-04-17T04:11:13.294Z,38.47
2023-04-17T04:13:41.896Z,38.80
2023-04-17T04:16:10.603Z,37.27
2023-04-17T04:18:41.267Z,37.77
2023-04-17T04:21:12.125Z,37.30
2023-04-17T04:23:45.665Z,33.73
2023-04-17T04:26:18.401Z,35.33
2023-04-17T04:28:52.404Z,36.83
2023-04-17T04:31:31.906Z,37.27
2023-04-17T04:34:03.289Z,37.77
2023-04-17T04:36:31.642Z,36.47
2023-04-17T04:39:12.223Z,37.77
2023-04-17T04:41:46.388Z,37.00
2023-04-17T04:44:15.908Z,36.90
2023-04-17T04:46:45.771Z,37.53
2023-04-17T04:49:14.536Z,34.23
2023-04-17T04:51:43.049Z,37.77
2023-04-17T04:54:11.908Z,35.23
2023-04-17T04:56:51.563Z,33.60
2023-04-17T04:59:19.884Z,36.40
2023-04-17T05:01:56.877Z,36.53
2023-04-17T05:04:25.556Z,30.93
2023-04-17T05:06:58.096Z,33.77
2023-04-17T05:09:26.499Z,33.60
2023-04-17T05:11:59.108Z,34.03
2023-04-17T05:14:28.325Z,35.63
2023-04-17T05:16:56.756Z,35.97
2023-04-17T05:19:25.805Z,34.67
2023-04-17T05:21:58.880Z,32.37
2023-04-17T05:24:27.318Z,33.63
2023-04-17T05:26:56.932Z,34.50
2023-04-17T05:29:27.428Z,33.90
2023-04-17T05:31:56.913Z,35.87
2023-04-17T05:34:45.091Z,33.33
2023-04-17T05:37:14.091Z,34.43
2023-04-17T05:39:42.498Z,33.67
2023-04-17T05:42:10.878Z,35.17
2023-04-17T05:44:41.000Z,33.50
2023-04-17T05:47:09.336Z,31.83
2023-04-17T05:49:38.618Z,30.87
2023-04-17T05:52:08.000Z,29.90
2023-04-17T05:54:40.642Z,29.87
2023-04-17T05:57:10.701Z,31.27
2023-04-17T05:59:40.723Z,30.40
2023-04-17T06:02:11.039Z,28.97
2023-04-17T06:04:39.809Z,29.30
2023-04-17T06:07:09.819Z,29.27
2023-04-17T06:09:38.666Z,28.07
2023-04-17T06:12:07.434Z,27.77
2023-04-17T06:14:36.264Z,28.90
2023-04-17T06:17:13.292Z,26.37
2023-04-17T06:19:41.721Z,28.13
2023-04-17T06:22:09.915Z,29.40
2023-04-17T06:24:38.228Z,27.57
2023-04-17T06:27:06.619Z,27.03
2023-04-17T06:29:35.192Z,27.33
2023-04-17T06:32:04.957Z,27.97
2023-04-17T06:34:34.694Z,27.83
2023-04-17T06:37:03.142Z,28.20
2023-04-17T06:39:31.771Z,27.13
2023-04-17T06:42:03.201Z,26.20
2023-04-17T06:44:32.084Z,28.20
2023-04-17T06:47:03.627Z,26.47
2023-04-17T06:49:32.741Z,27.03
2023-04-17T06:52:02.519Z,24.47
2023-04-17T06:54:30.934Z,26.63
2023-04-17T06:56:59.196Z,25.30
2023-04-17T06:59:27.460Z,23.83
2023-04-17T07:01:55.878Z,24.70
2023-04-17T07:04:24.653Z,23.43
2023-04-17T07:06:52.914Z,23.47
2023-04-17T07:09:22.629Z,23.93
2023-04-17T07:11:50.957Z,23.63
2023-04-17T07:14:19.593Z,23.13
2023-04-17T07:16:47.963Z,23.53
2023-04-17T07:19:16.402Z,23.10
2023-04-17T07:21:44.679Z,20.30
2023-04-17T07:24:12.968Z,19.70
2023-04-17T07:26:43.322Z,21.60
2023-04-17T07:29:11.814Z,20.97
2023-04-17T07:31:42.456Z,20.50
2023-04-17T07:34:10.801Z,20.53
2023-04-17T07:36:40.142Z,19.43
2023-04-17T07:39:10.569Z,19.37
2023-04-17T07:41:39.155Z,19.07
2023-04-17T07:44:08.829Z,18.33
2023-04-17T07:46:37.537Z,17.80
2023-04-17T07:49:05.854Z,16.50
2023-04-17T07:51:34.698Z,15.47
2023-04-17T07:54:03.695Z,16.07
2023-04-17T07:56:34.539Z,14.77
2023-04-17T07:59:03.589Z,14.90
2023-04-17T08:01:33.934Z,15.67
2023-04-17T08:04:05.550Z,15.73
2023-04-17T08:06:34.164Z,16.33
2023-04-17T08:09:03.239Z,14.20
2023-04-17T08:11:33.071Z,15.00
2023-04-17T08:14:04.608Z,13.40
2023-04-17T08:16:37.294Z,13.60
2023-04-17T08:19:05.764Z,14.20
2023-04-17T08:21:34.749Z,13.80
2023-04-17T08:24:03.585Z,14.73
2023-04-17T08:26:32.158Z,14.57
2023-04-17T08:29:01.858Z,14.53
2023-04-17T08:31:30.183Z,13.67
2023-04-17T08:34:10.829Z,12.67
2023-04-17T08:36:43.099Z,12.97
2023-04-17T08:39:12.284Z,13.07
2023-04-17T08:41:45.209Z,12.50
2023-04-17T08:44:13.833Z,13.33
2023-04-17T08:46:44.563Z,12.23
2023-04-17T08:49:14.967Z,12.23
2023-04-17T08:51:43.653Z,12.23
2023-04-17T08:54:13.161Z,12.77
2023-04-17T08:56:41.392Z,12.53
2023-04-17T08:59:09.712Z,12.70
2023-04-17T09:01:38.099Z,12.07
2023-04-17T09:04:06.930Z,12.97
2023-04-17T09:09:47.975Z,12.10
2023-04-17T09:12:16.457Z,12.00
2023-04-17T09:14:44.736Z,12.83
2023-04-17T09:17:15.178Z,11.40
2023-04-17T09:20:04.003Z,12.73
2023-04-17T09:22:32.308Z,11.90
2023-04-17T09:25:02.410Z,11.37
2023-04-17T09:27:31.073Z,11.70
2023-04-17T09:30:01.378Z,12.10
2023-04-17T09:32:31.344Z,10.50
2023-04-17T09:35:01.656Z,10.00
2023-04-17T09:37:51.404Z,9.43
2023-04-17T09:40:22.491Z,9.80
2023-04-17T09:43:01.348Z,9.53
2023-04-17T09:45:36.363Z,8.73
2023-04-17T09:48:07.770Z,9.10
2023-04-17T09:50:38.505Z,8.47
2023-04-17T09:53:08.316Z,8.93
2023-04-17T09:55:39.468Z,8.80
2023-04-17T09:58:08.554Z,8.40
2023-04-17T10:00:37.942Z,8.00
2023-04-17T10:03:08.330Z,8.07
2023-04-17T10:05:36.839Z,8.43
2023-04-17T10:08:05.841Z,8.70
2023-04-17T10:10:36.399Z,8.93
2023-04-17T10:13:11.197Z,8.80
2023-04-17T10:15:40.806Z,8.95
2023-04-17T10:18:23.007Z,9.05
2023-04-17T10:20:53.291Z,7.57
2023-04-17T10:23:32.889Z,7.63
2023-04-17T10:26:38.102Z,8.10
2023-04-17T10:29:07.881Z,8.98
2023-04-17T10:32:24.367Z,8.80
2023-04-17T10:34:54.055Z,8.73
2023-04-17T10:37:25.361Z,8.48
2023-04-17T10:40:00.697Z,7.90
2023-04-17T10:42:32.819Z,7.72
2023-04-17T10:45:04.825Z,7.55
2023-04-17T10:47:34.663Z,7.35
2023-04-17T10:50:05.319Z,7.63
2023-04-17T10:52:43.514Z,6.93
2023-04-17T10:55:16.125Z,7.43
2023-04-17T10:57:55.379Z,7.40
2023-04-17T11:00:33.962Z,6.45
2023-04-17T11:03:04.532Z,6.95
2023-04-17T11:05:35.538Z,5.97
2023-04-17T11:08:03.894Z,6.70
2023-04-17T11:10:37.350Z,6.05
2023-04-17T11:13:05.833Z,6.75
2023-04-17T11:15:36.635Z,5.53
2023-04-17T11:18:06.753Z,6.18
2023-04-17T11:20:38.136Z,6.38
2023-04-17T11:23:07.562Z,6.18
2023-04-17T11:25:37.222Z,6.00
2023-04-17T11:28:08.050Z,6.20
2023-04-17T11:30:40.637Z,6.65
2023-04-17T11:33:09.714Z,5.70
2023-04-17T11:35:39.420Z,5.30
2023-04-17T11:38:11.488Z,5.00
2023-04-17T11:40:47.646Z,5.38
2023-04-17T11:43:16.395Z,5.50
2023-04-17T11:45:50.774Z,5.72
2023-04-17T11:48:23.528Z,5.00
2023-04-17T11:50:55.324Z,4.38
2023-04-17T11:53:23.572Z,3.90
2023-04-17T11:56:16.767Z,3.90
2023-04-17T11:58:53.504Z,3.80
2023-04-17T12:01:25.525Z,3.90
2023-04-17T12:03:54.660Z,3.58
2023-04-17T12:06:24.217Z,3.90
2023-04-17T12:08:54.266Z,4.53
2023-04-17T12:11:30.612Z,4.53
2023-04-17T12:13:59.016Z,4.60
2023-04-17T12:16:30.347Z,3.60
2023-04-17T12:18:59.230Z,4.07
2023-04-17T12:21:27.511Z,3.33
2023-04-17T12:23:56.095Z,4.40
2023-04-17T12:26:25.272Z,5.40
2023-04-17T12:28:53.918Z,4.90
2023-04-17T12:31:22.200Z,5.07
2023-04-17T12:33:52.831Z,4.97
2023-04-17T12:36:21.228Z,4.45
2023-04-17T12:38:49.516Z,4.60
2023-04-17T12:41:18.078Z,4.93
2023-04-17T12:43:46.498Z,4.90
2023-04-17T12:46:14.770Z,5.03
2023-04-17T12:48:43.298Z,4.47
2023-04-17T12:51:13.259Z,4.82
2023-04-17T12:53:41.624Z,4.22
2023-04-17T12:56:10.498Z,5.00
2023-04-17T12:58:38.948Z,5.45
2023-04-17T13:01:07.367Z,5.07
2023-04-17T13:03:36.358Z,4.65
2023-04-17T13:06:04.925Z,4.60
2023-04-17T13:08:34.578Z,5.00
2023-04-17T13:11:03.817Z,5.10
2023-04-17T13:13:32.422Z,5.40
2023-04-17T13:16:01.003Z,5.55
2023-04-17T13:18:29.242Z,5.72
2023-04-17T13:20:58.463Z,6.05
2023-04-17T13:23:26.712Z,5.88
2023-04-17T13:25:56.415Z,6.00
2023-04-17T13:28:25.696Z,5.80
2023-04-17T13:30:56.970Z,5.93
2023-04-17T13:33:25.589Z,5.70
2023-04-17T13:35:54.124Z,5.65
2023-04-17T13:38:22.455Z,5.07
2023-04-17T13:40:50.887Z,5.32
2023-04-17T13:43:20.623Z,5.38
2023-04-17T13:45:49.782Z,4.88
2023-04-17T13:48:18.039Z,5.07
2023-04-17T13:50:46.297Z,5.83
2023-04-17T13:53:14.850Z,5.13
2023-04-17T13:55:43.256Z,5.97
2023-04-17T13:58:11.449Z,6.22
2023-04-17T14:00:41.058Z,5.20
2023-04-17T14:03:09.599Z,6.10
2023-04-17T14:05:37.944Z,5.45
2023-04-17T14:08:06.330Z,4.95
2023-04-17T14:10:35.279Z,5.28
2023-04-17T14:13:03.599Z,5.63
2023-04-17T14:15:32.026Z,5.72
2023-04-17T14:18:01.659Z,6.03
2023-04-17T14:20:30.171Z,5.50
2023-04-17T14:22:59.858Z,6.25
2023-04-17T14:25:28.108Z,7.22
2023-04-17T14:27:56.481Z,7.03
2023-04-17T14:30:25.021Z,7.30
2023-04-17T14:32:53.795Z,6.57
2023-04-17T14:35:23.882Z,6.03
2023-04-17T14:37:52.246Z,6.28
2023-04-17T14:40:21.768Z,6.60
2023-04-17T14:42:54.577Z,5.95
2023-04-17T14:45:23.303Z,6.20
2023-04-17T14:47:51.889Z,6.40
2023-04-17T14:50:20.269Z,5.85
2023-04-17T14:52:51.993Z,5.43
2023-04-17T14:55:20.377Z,5.88
2023-04-17T14:57:48.792Z,6.10
2023-04-17T15:00:18.158Z,6.47
2023-04-17T15:02:46.808Z,6.10
2023-04-17T15:05:20.051Z,5.88
2023-04-17T15:07:49.840Z,5.97
2023-04-17T15:10:18.372Z,6.10
2023-04-17T15:12:46.812Z,5.95
2023-04-17T15:15:15.420Z,5.70
2023-04-17T15:17:43.828Z,5.40
2023-04-17T15:20:12.875Z,5.60
2023-04-17T15:22:41.071Z,5.07
2023-04-17T15:25:11.120Z,5.55
2023-04-17T15:27:39.330Z,5.32
2023-04-17T15:30:09.469Z,5.05
2023-04-17T15:32:37.874Z,5.03
2023-04-17T15:35:09.564Z,5.20
2023-04-17T15:37:39.073Z,5.10
2023-04-17T15:40:08.858Z,5.22
2023-04-17T15:42:38.705Z,4.68
2023-04-17T15:45:08.479Z,4.57
2023-04-17T15:47:36.934Z,5.18
2023-04-17T15:50:06.660Z,5.22
2023-04-17T15:52:34.876Z,5.22
2023-04-17T15:55:03.629Z,5.47
2023-04-17T15:57:32.160Z,5.60
2023-04-17T16:00:02.029Z,5.75
2023-04-17T16:02:39.111Z,5.70
2023-04-17T16:05:08.331Z,5.05
2023-04-17T16:07:36.567Z,4.85
2023-04-17T16:10:05.349Z,5.20
2023-04-17T16:12:33.697Z,4.60
2023-04-17T16:15:03.471Z,5.47
2023-04-17T16:17:31.981Z,4.72
2023-04-17T16:20:00.326Z,4.47
2023-04-17T16:22:29.563Z,4.90
2023-04-17T16:24:58.556Z,5.13
2023-04-17T16:27:27.418Z,5.05
2023-04-17T16:29:55.964Z,5.10
2023-04-17T16:32:26.182Z,4.67
2023-04-17T16:34:54.543Z,5.10
2023-04-17T16:37:22.920Z,5.20
2023-04-17T16:39:51.514Z,5.10
2023-04-17T16:42:19.911Z,5.13
2023-04-17T16:44:48.434Z,4.90
2023-04-17T16:47:16.837Z,4.67
2023-04-17T16:49:46.462Z,4.90
2023-04-17T16:52:14.834Z,4.83
2023-04-17T16:54:43.567Z,4.87
2023-04-17T16:57:14.109Z,5.10
2023-04-17T16:59:42.572Z,5.80
2023-04-17T17:02:10.893Z,5.30
2023-04-17T17:04:39.242Z,5.27
2023-04-17T17:07:09.465Z,5.23
2023-04-17T17:09:37.748Z,5.30
2023-04-17T17:12:06.570Z,5.47
2023-04-17T17:14:34.987Z,5.30
2023-04-17T17:17:03.290Z,5.33
2023-04-17T17:19:33.560Z,5.80
2023-04-17T17:22:01.905Z,5.70
2023-04-17T17:24:32.052Z,5.20
2023-04-17T17:27:00.775Z,5.77
2023-04-17T17:29:29.270Z,5.30
2023-04-17T17:31:57.605Z,5.67
2023-04-17T17:34:27.105Z,5.93
2023-04-17T17:36:55.930Z,5.30
2023-04-17T17:39:24.239Z,5.60
2023-04-17T17:41:55.810Z,5.50
2023-04-17T17:44:24.456Z,5.30
2023-04-17T17:46:52.850Z,5.47
2023-04-17T17:49:21.583Z,7.67
2023-04-17T17:51:49.912Z,4.90
2023-04-17T17:54:18.450Z,4.93
2023-04-17T17:56:46.800Z,4.90
2023-04-17T17:59:16.394Z,4.97
2023-04-17T18:01:44.595Z,4.60
2023-04-17T18:04:13.429Z,4.90
2023-04-17T18:06:41.890Z,5.33
2023-04-17T18:09:10.155Z,5.07
2023-04-17T18:11:38.862Z,5.20
2023-04-17T18:14:07.806Z,4.80
2023-04-17T18:16:37.614Z,4.73
2023-04-17T18:19:06.800Z,5.00
2023-04-17T18:21:35.053Z,5.90
2023-04-17T18:24:03.223Z,4.70
2023-04-17T18:26:32.496Z,4.50
2023-04-17T18:29:00.902Z,4.87
2023-04-17T18:31:29.378Z,5.17
2023-04-17T18:34:02.224Z,4.70
2023-04-17T18:36:30.812Z,4.87
2023-04-17T18:38:59.118Z,5.47
2023-04-17T18:41:27.693Z,5.30
2023-04-17T18:43:57.075Z,5.33
2023-04-17T18:46:27.202Z,5.20
2023-04-17T18:48:55.615Z,5.93
2023-04-17T18:51:26.075Z,6.83
2023-04-17T18:53:54.710Z,6.93
2023-04-17T18:56:25.793Z,7.87
2023-04-17T18:58:54.166Z,5.93
2023-04-17T19:01:22.536Z,5.27
2023-04-17T19:03:53.066Z,4.90
2023-04-17T19:06:21.563Z,5.70
2023-04-17T19:08:51.486Z,4.73
2023-04-17T19:11:19.904Z,4.73
2023-04-17T19:13:48.172Z,6.00
2023-04-17T19:16:16.391Z,4.70
2023-04-17T19:18:44.736Z,5.00
2023-04-17T19:21:15.654Z,5.30
2023-04-17T19:23:44.102Z,5.73
2023-04-17T19:26:15.601Z,5.97
2023-04-17T19:28:44.326Z,5.40
2023-04-17T19:31:12.708Z,5.20
2023-04-17T19:33:40.928Z,5.33
2023-04-17T19:36:09.256Z,5.43
2023-04-17T19:38:37.679Z,4.80
2023-04-17T19:41:17.436Z,6.33
2023-04-17T19:43:46.040Z,5.90
2023-04-17T19:46:16.347Z,6.00
2023-04-17T19:48:45.438Z,5.60
2023-04-17T19:51:14.694Z,5.60
2023-04-17T19:53:44.395Z,5.70
2023-04-17T19:56:14.320Z,9.13
2023-04-17T19:58:42.660Z,11.70
2023-04-17T20:01:11.202Z,8.70
2023-04-17T20:03:42.191Z,8.37
2023-04-17T20:06:10.782Z,6.10
2023-04-17T20:08:39.690Z,5.63
2023-04-17T20:11:11.780Z,5.20
2023-04-17T20:13:41.403Z,5.40
2023-04-17T20:16:09.902Z,5.00
2023-04-17T20:18:38.277Z,5.33
2023-04-17T20:21:07.140Z,4.83
2023-04-17T20:23:35.508Z,4.83
2023-04-17T20:26:04.026Z,4.93
2023-04-17T20:28:32.409Z,5.23
2023-04-17T20:31:03.238Z,5.23
2023-04-17T20:33:31.587Z,4.53
2023-04-17T20:35:59.907Z,4.90
2023-04-17T20:38:28.172Z,5.30
2023-04-17T20:40:56.699Z,5.07
2023-04-17T20:43:25.326Z,5.33
2023-04-17T20:45:53.650Z,5.00
2023-04-17T20:48:25.294Z,6.70
2023-04-17T20:50:53.766Z,5.27
2023-04-17T20:53:22.326Z,4.90
2023-04-17T20:55:50.772Z,5.50
2023-04-17T20:58:19.546Z,4.43
2023-04-17T21:03:24.157Z,5.33
2023-04-17T21:05:52.908Z,4.83
2023-04-17T21:08:21.234Z,5.00
2023-04-17T21:10:49.533Z,5.73
2023-04-17T21:13:17.833Z,5.77
2023-04-17T21:15:46.471Z,6.27
2023-04-17T21:18:14.722Z,5.90
2023-04-17T21:20:44.721Z,5.00
2023-04-17T21:23:12.979Z,4.60
2023-04-17T21:25:41.222Z,5.20
2023-04-17T21:28:09.523Z,4.43
2023-04-17T21:30:37.863Z,4.97
2023-04-17T21:33:06.198Z,4.90
2023-04-17T21:35:36.273Z,5.70
2023-04-17T21:38:06.600Z,5.67
2023-04-17T21:40:37.009Z,5.60
2023-04-17T21:43:05.995Z,5.30
2023-04-17T21:45:34.305Z,5.37
2023-04-17T21:48:03.366Z,5.43
2023-04-17T21:50:31.979Z,5.97
2023-04-17T21:53:02.674Z,6.00
2023-04-17T21:55:32.267Z,5.90
2023-04-17T21:58:00.642Z,6.07
2023-04-17T22:00:28.907Z,6.07
2023-04-17T22:02:58.384Z,5.97
2023-04-17T22:05:26.795Z,6.57
2023-04-17T22:07:55.676Z,7.23
2023-04-17T22:10:24.722Z,6.33
2023-04-17T22:12:54.432Z,6.50
2023-04-17T22:15:22.680Z,6.70
2023-04-17T22:17:51.436Z,6.57
2023-04-17T22:20:20.161Z,6.97
2023-04-17T22:22:48.740Z,6.57
2023-04-17T22:25:17.149Z,6.97
2023-04-17T22:27:46.265Z,6.87
2023-04-17T22:30:15.936Z,7.00
2023-04-17T22:32:44.253Z,7.03
2023-04-17T22:35:12.659Z,6.93
2023-04-17T22:37:40.948Z,7.10
2023-04-17T22:40:14.282Z,6.73
2023-04-17T22:42:42.927Z,7.17
2023-04-17T22:45:11.579Z,7.33
2023-04-17T22:47:41.259Z,7.30
2023-04-17T22:50:10.946Z,7.40
2023-04-17T22:52:39.245Z,7.63
2023-04-17T22:55:08.284Z,7.77
2023-04-17T22:57:36.606Z,8.00
2023-04-17T23:00:08.924Z,7.90
2023-04-17T23:02:37.534Z,8.03
2023-04-17T23:05:08.713Z,8.30
2023-04-17T23:07:37.312Z,7.80
2023-04-17T23:10:06.196Z,8.10
2023-04-17T23:12:34.432Z,8.07
2023-04-17T23:15:02.808Z,8.40
2023-04-17T23:17:31.227Z,8.20
2023-04-17T23:19:59.609Z,8.70
2023-04-17T23:22:29.479Z,8.63
2023-04-17T23:24:58.337Z,8.33
2023-04-17T23:27:26.820Z,9.10
2023-04-17T23:29:55.096Z,9.20
2023-04-17T23:32:23.616Z,9.40
2023-04-17T23:34:52.109Z,9.63
2023-04-17T23:37:20.335Z,9.50
2023-04-17T23:39:52.956Z,9.70
2023-04-17T23:42:21.229Z,10.20
2023-04-17T23:44:49.457Z,10.10
2023-04-17T23:47:17.688Z,9.70
2023-04-17T23:49:47.452Z,10.00
2023-04-17T23:52:15.735Z,10.17
2023-04-17T23:54:44.009Z,10.90
2023-04-17T23:57:13.642Z,11.07
2023-04-17T23:59:41.896Z,10.87
